Time;durP1;ratioP1;P1;durP2;ratioP2;P2;SDS_P1;SDS_P2;PMS_P1;PMS_P2;Temp;Humidity;BMP_temperature;BMP_pressure;BME280_temperature;BME280_humidity;BME280_pressure;Samples;Min_cycle;Max_cycle;Signal;HPM_P1;HPM_P2
2023/12/07 00:01:34;;;;;;;7.40;4.63;;;;;;;10.63;100.00;100371.19;5048475;28;20029;-78
2023/12/07 00:04:00;;;;;;;7.93;3.92;;;;;;;10.60;100.00;100379.53;5048388;28;20029;-78
2023/12/07 00:06:26;;;;;;;6.55;3.40;;;;;;;10.57;100.00;100361.81;5048244;28;20029;-79
2023/12/07 00:08:52;;;;;;;9.50;3.83;;;;;;;10.62;100.00;100362.25;5047968;28;20112;-78
2023/12/07 00:11:17;;;;;;;4.38;3.28;;;;;;;10.52;100.00;100350.59;5048078;28;20040;-78
2023/12/07 00:13:43;;;;;;;4.30;3.22;;;;;;;10.61;100.00;100365.09;5048212;28;20033;-77
2023/12/07 00:16:08;;;;;;;3.65;2.80;;;;;;;10.58;100.00;100362.69;5048446;28;20028;-77
2023/12/07 00:18:34;;;;;;;5.78;3.28;;;;;;;10.58;100.00;100374.25;5047110;28;20116;-78
2023/12/07 00:20:59;;;;;;;3.65;3.25;;;;;;;10.58;100.00;100392.25;5047807;28;20033;-78
2023/12/07 00:23:25;;;;;;;7.80;3.38;;;;;;;10.58;100.00;100393.09;5047693;28;20109;-78
2023/12/07 00:25:50;;;;;;;7.32;3.58;;;;;;;10.55;100.00;100379.06;5048130;28;20138;-77
2023/12/07 00:28:16;;;;;;;5.03;3.15;;;;;;;10.59;100.00;100386.72;5047979;28;20033;-79
2023/12/07 00:30:42;;;;;;;4.10;3.17;;;;;;;10.55;100.00;100366.47;5048276;28;20037;-78
2023/12/07 00:33:09;;;;;;;6.20;3.28;;;;;;;10.53;100.00;100381.88;5048099;28;20029;-78
2023/12/07 00:35:35;;;;;;;4.57;3.30;;;;;;;10.51;100.00;100381.16;5047775;28;20040;-78
2023/12/07 00:38:01;;;;;;;4.53;3.00;;;;;;;10.51;100.00;100386.53;5055337;28;20031;-78
2023/12/07 00:40:27;;;;;;;2.67;2.45;;;;;;;10.56;100.00;100387.00;5055186;28;20475;-78
2023/12/07 00:42:53;;;;;;;4.53;2.70;;;;;;;10.50;100.00;100381.28;5048062;28;20028;-78
2023/12/07 00:45:18;;;;;;;2.83;2.63;;;;;;;10.51;100.00;100383.84;5047813;28;20211;-79
2023/12/07 00:47:44;;;;;;;3.03;2.72;;;;;;;10.54;100.00;100383.59;5046398;28;20128;-78
2023/12/07 00:50:13;;;;;;;3.13;2.40;;;;;;;10.49;100.00;100377.72;5047725;28;20452;-79
2023/12/07 00:52:39;;;;;;;4.82;2.72;;;;;;;10.54;100.00;100383.59;5047527;28;20040;-77
2023/12/07 00:55:05;;;;;;;3.25;2.58;;;;;;;10.56;100.00;100388.81;5047632;28;20025;-77
2023/12/07 00:57:31;;;;;;;2.55;2.35;;;;;;;10.53;100.00;100381.88;5047729;28;20503;-77
2023/12/07 00:59:56;;;;;;;4.43;2.40;;;;;;;10.61;100.00;100379.38;5047655;28;20056;-77
2023/12/07 01:02:22;;;;;;;3.00;2.75;;;;;;;10.64;100.00;100379.13;5048183;28;20032;-77
2023/12/07 01:04:47;;;;;;;2.58;2.45;;;;;;;10.60;100.00;100385.75;5047538;28;20484;-78
2023/12/07 01:07:13;;;;;;;2.85;2.50;;;;;;;10.42;100.00;100351.50;5047603;28;20558;-77
2023/12/07 01:09:38;;;;;;;2.30;2.10;;;;;;;10.61;100.00;100363.25;5047307;28;20025;-79
2023/12/07 01:12:04;;;;;;;2.35;2.17;;;;;;;10.63;100.00;100366.66;5047715;28;20087;-77
2023/12/07 01:14:30;;;;;;;1.80;1.70;;;;;;;10.59;100.00;100361.66;5047585;28;20033;-77
2023/12/07 01:16:55;;;;;;;2.15;1.95;;;;;;;10.60;100.00;100372.31;5047541;28;20078;-76
2023/12/07 01:19:21;;;;;;;2.20;2.08;;;;;;;10.54;100.00;100358.53;5047586;28;20107;-79
2023/12/07 01:21:46;;;;;;;2.50;2.30;;;;;;;10.43;100.00;100351.38;5028692;28;20049;-77
2023/12/07 01:24:12;;;;;;;2.70;2.33;;;;;;;10.49;100.00;100352.72;5047300;28;20412;-78
2023/12/07 01:26:37;;;;;;;2.20;2.00;;;;;;;10.56;100.00;100353.88;5047731;28;20021;-78
2023/12/07 01:29:03;;;;;;;2.30;2.20;;;;;;;10.53;100.00;100360.38;5055563;28;20052;-79
2023/12/07 01:31:29;;;;;;;2.13;1.98;;;;;;;10.54;100.00;100367.47;5058351;28;20094;-78
2023/12/07 01:33:55;;;;;;;2.30;2.10;;;;;;;10.53;100.00;100356.81;5048581;28;20112;-77
2023/12/07 01:36:21;;;;;;;2.22;2.03;;;;;;;10.54;100.00;100359.41;5045973;28;20170;-78
2023/12/07 01:38:46;;;;;;;2.00;1.90;;;;;;;10.44;100.00;100358.47;5047290;28;20021;-78
2023/12/07 01:41:12;;;;;;;1.75;1.65;;;;;;;10.46;100.00;100361.88;5047257;28;20056;-78
2023/12/07 01:43:44;;;;;;;2.80;2.40;;;;;;;10.47;100.00;100360.03;5047452;28;20102;-78
2023/12/07 01:46:10;;;;;;;2.20;2.08;;;;;;;10.50;100.00;100360.63;5047544;28;20048;-78
2023/12/07 01:48:35;;;;;;;2.55;2.15;;;;;;;10.46;100.00;100350.28;5049089;28;20123;-78
2023/12/07 01:51:01;;;;;;;2.50;2.30;;;;;;;10.46;100.00;100361.03;5051048;28;20113;-78
2023/12/07 01:53:28;;;;;;;3.30;2.58;;;;;;;10.52;100.00;100358.66;5050669;28;20107;-78
2023/12/07 01:55:54;;;;;;;7.35;2.97;;;;;;;10.41;100.00;100345.28;5050690;28;20035;-78
2023/12/07 01:58:20;;;;;;;2.10;2.00;;;;;;;10.52;100.00;100353.28;5050734;28;20025;-78
2023/12/07 02:00:47;;;;;;;4.68;2.67;;;;;;;10.51;100.00;100359.66;5050408;28;20029;-78
2023/12/07 02:03:13;;;;;;;7.85;2.90;;;;;;;10.34;100.00;100344.09;5050822;28;20021;-77
2023/12/07 02:05:43;;;;;;;3.97;3.25;;;;;;;10.43;100.00;100361.31;5050299;28;20033;-78
2023/12/07 02:08:08;;;;;;;3.65;2.78;;;;;;;10.49;100.00;100368.84;5050583;28;20025;-79
2023/12/07 02:10:35;;;;;;;4.40;3.33;;;;;;;10.39;100.00;100363.38;5050776;28;20037;-77
2023/12/07 02:13:01;;;;;;;3.00;2.75;;;;;;;10.42;100.00;100371.19;5050599;28;20032;-78
2023/12/07 02:15:26;;;;;;;3.00;2.70;;;;;;;10.38;100.00;100372.44;5050495;28;20152;-78
2023/12/07 02:18:36;;;;;;;4.65;3.33;;;;;;;10.41;100.00;100361.41;5050287;28;20544;-78
2023/12/07 02:21:21;;;;;;;5.15;3.03;;;;;;;10.32;100.00;100372.94;5057403;28;20033;-78
2023/12/07 02:23:50;;;;;;;2.60;2.40;;;;;;;10.31;100.00;100373.91;5055411;28;20060;-77
2023/12/07 02:26:24;;;;;;;2.55;2.35;;;;;;;10.28;100.00;100374.19;5050219;28;20096;-77
2023/12/07 02:28:50;;;;;;;2.42;2.22;;;;;;;10.13;100.00;100351.25;5050005;28;20397;-77
2023/12/07 02:31:15;;;;;;;2.60;2.40;;;;;;;10.17;100.00;100369.72;5050213;28;20044;-79
2023/12/07 02:50:29;;;;;;;2.17;2.08;;;;;;;9.99;100.00;100389.16;5049838;28;20110;-78
2023/12/07 02:52:56;;;;;;;2.45;2.25;;;;;;;9.96;100.00;100376.00;5049635;28;20486;-77
2023/12/07 02:55:22;;;;;;;2.08;1.98;;;;;;;10.00;100.00;100369.41;5049556;28;20033;-78
2023/12/07 02:57:48;;;;;;;4.97;2.17;;;;;;;9.98;100.00;100382.06;5049222;28;20436;-77
2023/12/07 03:00:14;;;;;;;2.20;2.00;;;;;;;9.95;100.00;100385.03;5047614;28;20496;-77
2023/12/07 03:02:40;;;;;;;1.77;1.67;;;;;;;9.93;100.00;100373.56;5049672;28;20029;-79
2023/12/07 03:05:07;;;;;;;2.42;2.25;;;;;;;9.95;100.00;100380.50;5049918;28;20048;-77
2023/12/07 03:07:34;;;;;;;2.38;2.13;;;;;;;9.96;100.00;100376.00;5049426;28;20021;-77
2023/12/07 03:09:59;;;;;;;2.70;2.40;;;;;;;10.02;100.00;100375.47;5050242;28;20035;-78
2023/12/07 03:12:25;;;;;;;2.95;2.65;;;;;;;10.00;100.00;100374.78;5060286;28;20086;-79
2023/12/07 03:14:51;;;;;;;5.13;2.33;;;;;;;9.99;100.00;100392.72;5059036;28;20130;-78
2023/12/07 03:17:16;;;;;;;2.25;2.00;;;;;;;9.99;100.00;100389.16;5049195;28;20544;-77
2023/12/07 03:19:42;;;;;;;2.88;2.65;;;;;;;9.93;100.00;100387.00;5049566;28;20516;-77
2023/12/07 03:22:08;;;;;;;2.92;2.25;;;;;;;9.87;100.00;100387.50;5049288;28;20106;-77
2023/12/07 03:24:37;;;;;;;2.33;1.90;;;;;;;9.87;100.00;100379.44;5048876;28;20059;-78
2023/12/07 03:27:04;;;;;;;2.80;2.60;;;;;;;9.77;100.00;100382.88;5049044;28;20447;-78
2023/12/07 03:29:30;;;;;;;2.30;2.10;;;;;;;9.80;100.00;100388.00;5049073;28;20036;-77
2023/12/07 03:31:55;;;;;;;3.38;2.80;;;;;;;9.73;100.00;100373.34;5048984;28;20025;-77
2023/12/07 03:34:21;;;;;;;2.50;2.30;;;;;;;9.61;100.00;100354.72;5049115;28;20079;-78
2023/12/07 03:36:47;;;;;;;2.20;2.08;;;;;;;9.75;100.00;100395.56;5048807;28;20535;-77
2023/12/07 03:39:22;;;;;;;2.10;2.00;;;;;;;9.78;100.00;100381.88;5048957;28;20128;-78
2023/12/07 03:41:48;;;;;;;2.50;2.30;;;;;;;9.77;100.00;100388.25;5031266;28;20428;-77
2023/12/07 03:44:14;;;;;;;2.17;2.08;;;;;;;9.80;100.00;100382.63;5048546;28;20063;-78
2023/12/07 03:46:39;;;;;;;2.35;2.15;;;;;;;9.81;100.00;100381.63;5048556;28;20065;-79
2023/12/07 03:49:05;;;;;;;2.60;2.40;;;;;;;9.73;100.00;100370.66;5048859;28;20036;-80
2023/12/07 03:51:32;;;;;;;2.70;2.50;;;;;;;9.78;100.00;100379.19;5048651;28;20067;-79
2023/12/07 03:53:57;;;;;;;2.78;2.58;;;;;;;9.72;100.00;100363.59;5047244;28;20409;-82
2023/12/07 03:56:28;;;;;;;2.78;2.50;;;;;;;9.81;100.00;100383.50;5048532;28;20021;-79
2023/12/07 03:58:54;;;;;;;3.25;2.05;;;;;;;9.84;100.00;100384.09;5048524;28;20451;-79
2023/12/07 04:01:27;;;;;;;2.80;2.60;;;;;;;9.70;100.00;100360.19;5050670;28;20029;-81
2023/12/07 04:03:54;;;;;;;3.17;2.90;;;;;;;9.87;100.00;100387.50;5059810;28;20029;-80
2023/12/07 04:06:23;;;;;;;3.45;3.10;;;;;;;9.51;100.00;100335.81;5053733;28;20025;-81
2023/12/07 04:08:49;;;;;;;4.00;3.70;;;;;;;9.78;100.00;100379.19;5048259;28;20540;-81
2023/12/07 04:11:15;;;;;;;3.45;3.15;;;;;;;9.85;100.00;100392.97;5047902;28;20055;-80
2023/12/07 04:13:41;;;;;;;4.78;3.45;;;;;;;9.89;100.00;100391.75;5048321;28;20057;-80
2023/12/07 04:16:10;;;;;;;3.72;3.40;;;;;;;9.88;100.00;100405.34;5048486;28;20028;-80
2023/12/07 04:18:36;;;;;;;2.60;2.40;;;;;;;9.83;100.00;100409.22;5046937;28;20505;-82
2023/12/07 04:21:03;;;;;;;2.35;2.20;;;;;;;9.81;100.00;100405.81;5048366;28;20032;-81
2023/12/07 04:23:28;;;;;;;3.42;3.13;;;;;;;9.85;100.00;100418.00;5048073;28;20109;-79
2023/12/07 04:25:54;;;;;;;3.42;3.13;;;;;;;9.81;100.00;100416.53;5048302;28;20135;-82
2023/12/07 04:28:19;;;;;;;2.90;2.65;;;;;;;9.55;100.00;100382.91;5048154;28;20528;-81
2023/12/07 04:30:45;;;;;;;2.65;2.45;;;;;;;9.59;100.00;100408.53;5046842;28;20469;-80
2023/12/07 04:33:11;;;;;;;2.70;2.50;;;;;;;9.52;100.00;100415.38;5048275;28;20115;-78
2023/12/07 04:35:36;;;;;;;12.25;6.63;;;;;;;9.32;100.00;100410.75;5047940;28;20031;-77
2023/12/07 04:38:02;;;;;;;7.20;5.85;;;;;;;9.32;100.00;100426.88;5048032;28;20063;-79
2023/12/07 04:40:27;;;;;;;3.58;3.28;;;;;;;9.11;100.00;100407.09;5047629;28;20113;-77
2023/12/07 04:42:53;;;;;;;4.05;2.60;;;;;;;9.16;100.00;100412.94;5048117;28;20037;-79
2023/12/07 04:45:18;;;;;;;4.28;2.92;;;;;;;9.06;100.00;100409.25;5047696;28;20025;-80
2023/12/07 04:47:45;;;;;;;3.35;3.05;;;;;;;8.98;100.00;100411.72;5047924;28;20060;-77
2023/12/07 04:50:10;;;;;;;5.85;3.38;;;;;;;8.77;100.00;100385.56;5048104;28;20567;-79
2023/12/07 04:52:36;;;;;;;12.55;6.88;;;;;;;8.86;100.00;100416.22;5048080;28;20021;-77
2023/12/07 04:55:02;;;;;;;20.90;9.93;;;;;;;8.88;100.00;100433.03;5057640;28;20048;-79
2023/12/07 04:57:27;;;;;;;11.55;5.78;;;;;;;8.68;100.00;100406.91;5058815;28;20035;-79
2023/12/07 04:59:53;;;;;;;10.90;7.05;;;;;;;8.64;100.00;100392.03;5047860;28;20126;-78
2023/12/07 05:02:19;;;;;;;3.35;3.00;;;;;;;8.57;100.00;100393.44;5048441;28;20098;-77
2023/12/07 05:04:45;;;;;;;6.95;3.92;;;;;;;8.77;100.00;100417.75;5029104;28;20098;-78
2023/12/07 05:07:11;;;;;;;5.13;4.32;;;;;;;8.74;100.00;100415.31;5047714;28;20052;-80
2023/12/07 05:09:38;;;;;;;9.02;4.53;;;;;;;8.59;100.00;100392.34;5047914;28;20033;-77
2023/12/07 05:12:04;;;;;;;8.90;5.82;;;;;;;8.70;100.00;100416.53;5047688;28;20110;-78
2023/12/07 05:14:31;;;;;;;4.25;3.70;;;;;;;8.64;100.00;100417.00;5047406;28;20386;-77
2023/12/07 05:16:56;;;;;;;6.45;4.22;;;;;;;8.62;100.00;100408.22;5047542;28;20028;-77
2023/12/07 05:19:25;;;;;;;12.38;6.20;;;;;;;8.69;100.00;100417.50;5047314;28;20048;-77
2023/12/07 05:21:51;;;;;;;14.25;6.07;;;;;;;8.64;100.00;100406.28;5048246;28;20027;-76
2023/12/07 05:24:17;;;;;;;9.52;5.78;;;;;;;8.71;100.00;100428.94;5050719;28;20033;-77
2023/12/07 05:26:45;;;;;;;4.20;3.63;;;;;;;8.65;100.00;100410.66;5050923;28;20021;-77
2023/12/07 05:29:11;;;;;;;4.85;4.38;;;;;;;8.53;100.00;100387.47;5050865;28;20079;-76
2023/12/07 05:31:37;;;;;;;7.60;4.70;;;;;;;8.69;100.00;100422.84;5051382;28;20029;-79
2023/12/07 05:34:03;;;;;;;17.05;7.43;;;;;;;8.64;100.00;100417.00;5051278;28;20036;-78
2023/12/07 05:36:29;;;;;;;6.07;5.15;;;;;;;8.64;100.00;100410.78;5050957;28;20056;-78
2023/12/07 05:38:55;;;;;;;4.28;3.92;;;;;;;8.64;100.00;100414.31;5051570;28;20064;-78
2023/12/07 05:41:20;;;;;;;6.45;4.68;;;;;;;8.70;100.00;100411.16;5050748;28;20071;-78
2023/12/07 05:43:46;;;;;;;9.07;6.25;;;;;;;8.70;100.00;100416.53;5051176;28;20033;-78
2023/12/07 05:46:11;;;;;;;14.68;8.57;;;;;;;8.53;100.00;100392.81;5054541;28;20434;-77
2023/12/07 05:48:37;;;;;;;8.38;5.47;;;;;;;8.69;100.00;100419.31;5054887;28;20028;-76
2023/12/07 05:51:03;;;;;;;5.32;4.85;;;;;;;8.65;100.00;100424.06;5048611;28;20377;-77
2023/12/07 05:53:29;;;;;;;5.68;5.18;;;;;;;8.51;100.00;100412.69;5050495;28;20090;-77
2023/12/07 05:55:54;;;;;;;5.35;4.85;;;;;;;8.45;100.00;100395.25;5050760;28;20025;-77
2023/12/07 05:58:20;;;;;;;11.93;6.68;;;;;;;8.65;100.00;100444.69;5050332;28;20095;-77
2023/12/07 06:00:46;;;;;;;5.07;4.65;;;;;;;8.53;100.00;100430.34;5048105;28;20068;-78
2023/12/07 06:03:15;;;;;;;6.43;4.88;;;;;;;8.53;100.00;100425.00;5050530;28;20033;-79
2023/12/07 06:05:41;;;;;;;6.15;4.65;;;;;;;8.42;100.00;100422.28;5050892;28;20489;-78
2023/12/07 06:08:07;;;;;;;6.18;5.28;;;;;;;8.47;100.00;100424.63;5050637;28;20036;-77
2023/12/07 06:10:33;;;;;;;12.38;6.47;;;;;;;8.48;100.00;100424.50;5050679;28;20055;-78
2023/12/07 06:13:00;;;;;;;6.07;5.03;;;;;;;8.62;100.00;100443.06;5050502;28;20032;-79
2023/12/07 06:15:27;;;;;;;7.32;6.10;;;;;;;8.50;100.00;100435.94;5050381;28;20033;-78
2023/12/07 06:17:53;;;;;;;6.32;5.40;;;;;;;8.61;100.00;100449.41;5048873;28;20036;-76
2023/12/07 06:20:18;;;;;;;7.32;6.03;;;;;;;8.57;100.00;100447.91;5050137;28;20444;-77
2023/12/07 06:22:44;;;;;;;9.48;6.40;;;;;;;8.56;100.00;100450.72;5050576;28;20063;-77
2023/12/07 06:25:09;;;;;;;6.85;6.15;;;;;;;8.58;100.00;100451.47;5050575;28;20149;-76
2023/12/07 06:27:35;;;;;;;11.35;6.82;;;;;;;8.53;100.00;100462.50;5050506;28;20029;-77
2023/12/07 06:30:01;;;;;;;9.27;6.47;;;;;;;8.53;100.00;100462.50;5050199;28;20025;-78
2023/12/07 06:32:27;;;;;;;8.40;6.72;;;;;;;8.37;100.00;100443.22;5050300;28;20040;-78
2023/12/07 06:34:52;;;;;;;16.58;7.45;;;;;;;8.52;100.00;100450.09;5049509;28;20060;-77
2023/12/07 06:37:20;;;;;;;10.13;7.22;;;;;;;8.33;100.00;100414.94;5056432;28;20025;-78
2023/12/07 06:39:45;;;;;;;12.15;7.22;;;;;;;8.59;100.00;100459.38;5055554;28;20648;-78
2023/12/07 06:42:11;;;;;;;9.30;6.55;;;;;;;8.63;100.00;100465.34;5049930;28;20086;-77
2023/12/07 06:44:36;;;;;;;12.45;6.90;;;;;;;8.57;100.00;100474.72;5049838;28;20033;-77
2023/12/07 06:47:04;;;;;;;15.18;8.23;;;;;;;8.50;100.00;100473.47;5050147;28;20159;-78
2023/12/07 06:49:30;;;;;;;11.30;7.43;;;;;;;8.51;100.00;100482.38;5049779;28;20730;-78
2023/12/07 06:51:56;;;;;;;12.98;6.45;;;;;;;8.44;100.00;100468.56;5049485;28;20036;-78
2023/12/07 06:54:21;;;;;;;7.28;5.85;;;;;;;8.38;100.00;100478.91;5049728;28;20036;-77
2023/12/07 06:56:47;;;;;;;7.78;6.20;;;;;;;8.40;100.00;100493.06;5049418;28;20029;-79
2023/12/07 06:59:13;;;;;;;12.45;7.75;;;;;;;8.39;100.00;100478.78;5049735;28;20025;-77
2023/12/07 07:01:38;;;;;;;12.45;7.38;;;;;;;8.46;100.00;100492.59;5049532;28;20060;-78
2023/12/07 07:04:04;;;;;;;8.07;6.18;;;;;;;8.45;100.00;100481.00;5049777;28;20032;-77
2023/12/07 07:06:29;;;;;;;7.40;5.40;;;;;;;8.48;100.00;100490.63;5049605;28;20485;-76
2023/12/07 07:08:55;;;;;;;12.52;5.93;;;;;;;8.50;100.00;100494.91;5049293;28;20171;-77
2023/12/07 07:11:20;;;;;;;15.15;6.93;;;;;;;8.37;100.00;100479.88;5049577;28;20025;-78
2023/12/07 07:13:46;;;;;;;7.30;5.50;;;;;;;8.58;100.00;100508.63;5049133;28;20405;-78
2023/12/07 07:16:11;;;;;;;13.77;7.55;;;;;;;8.55;100.00;100490.09;5049211;28;20076;-78
2023/12/07 07:18:38;;;;;;;9.15;5.18;;;;;;;8.51;100.00;100480.56;5049463;28;20033;-78
2023/12/07 07:21:04;;;;;;;8.02;6.00;;;;;;;8.64;100.00;100497.44;5049659;28;20028;-77
2023/12/07 07:23:30;;;;;;;12.82;7.13;;;;;;;8.64;100.00;100505.47;5049569;28;20029;-77
2023/12/07 07:25:55;;;;;;;13.68;6.72;;;;;;;8.53;100.00;100486.63;5049838;28;20045;-76
2023/12/07 07:28:21;;;;;;;14.70;6.40;;;;;;;8.53;100.00;100488.50;5056245;28;20021;-77
2023/12/07 07:30:46;;;;;;;16.48;8.20;;;;;;;8.57;100.00;100509.56;5054623;28;20044;-77
2023/12/07 07:33:12;;;;;;;20.02;9.25;;;;;;;8.58;100.00;100503.25;5048931;28;20048;-77
2023/12/07 07:35:37;;;;;;;28.17;11.27;;;;;;;8.61;100.00;100510.19;5048659;28;20094;-78
2023/12/07 07:38:03;;;;;;;14.80;9.95;;;;;;;8.67;100.00;100507.06;5048826;28;20074;-77
2023/12/07 07:40:28;;;;;;;19.70;10.95;;;;;;;8.71;100.00;100508.53;5049045;28;20055;-78
2023/12/07 07:42:54;;;;;;;14.40;7.15;;;;;;;8.71;100.00;100504.00;5047384;28;20033;-77
2023/12/07 07:45:20;;;;;;;11.50;6.97;;;;;;;8.77;100.00;100501.88;5047842;28;20087;-77
2023/12/07 07:47:45;;;;;;;12.40;8.52;;;;;;;8.74;100.00;100503.78;5048627;28;20409;-77
2023/12/07 07:50:11;;;;;;;12.88;8.35;;;;;;;8.75;100.00;100512.69;5048880;28;20025;-78
2023/12/07 07:52:36;;;;;;;9.07;6.50;;;;;;;8.66;100.00;100516.94;5048340;28;20065;-78
2023/12/07 07:55:04;;;;;;;19.15;7.88;;;;;;;8.55;100.00;100514.19;5048725;28;20086;-77
2023/12/07 07:57:30;;;;;;;16.17;9.30;;;;;;;8.44;100.00;100508.78;5047921;28;20412;-79
2023/12/07 07:59:57;;;;;;;9.23;6.78;;;;;;;8.58;100.00;100518.47;5048326;28;20033;-77
2023/12/07 08:02:22;;;;;;;9.05;6.22;;;;;;;8.48;100.00;100512.94;5048415;28;20397;-78
2023/12/07 08:04:48;;;;;;;8.18;5.53;;;;;;;8.59;100.00;100534.44;5047108;28;20048;-78
2023/12/07 08:07:13;;;;;;;5.65;5.07;;;;;;;8.58;100.00;100535.41;5048157;28;20029;-77
2023/12/07 08:09:39;;;;;;;7.72;4.85;;;;;;;8.59;100.00;100547.84;5048587;28;20112;-78
2023/12/07 08:12:06;;;;;;;9.50;5.80;;;;;;;8.65;100.00;100542.00;5048811;28;20029;-77
2023/12/07 08:14:32;;;;;;;11.55;5.88;;;;;;;8.74;100.00;100545.84;5047947;28;20061;-77
2023/12/07 08:16:57;;;;;;;8.10;5.47;;;;;;;8.75;100.00;100544.88;5049244;28;20524;-78
2023/12/07 08:19:23;;;;;;;8.82;4.75;;;;;;;8.65;100.00;100525.94;5055419;28;20029;-79
2023/12/07 08:21:50;;;;;;;5.45;4.60;;;;;;;8.72;100.00;100532.53;5052615;28;20028;-76
2023/12/07 08:24:16;;;;;;;7.57;5.05;;;;;;;8.69;100.00;100505.97;5047838;28;20032;-77
2023/12/07 08:26:41;;;;;;;10.50;5.38;;;;;;;8.85;100.00;100531.63;5048153;28;20033;-77
2023/12/07 08:29:07;;;;;;;5.32;4.60;;;;;;;8.69;100.00;100508.66;5047789;28;20492;-78
2023/12/07 08:31:32;;;;;;;6.10;4.55;;;;;;;8.84;100.00;100525.41;5046765;28;20361;-80
2023/12/07 08:33:58;;;;;;;7.43;5.05;;;;;;;8.75;100.00;100510.00;5047752;28;20021;-77
2023/12/07 08:36:23;;;;;;;12.43;5.03;;;;;;;8.77;100.00;100511.59;5047730;28;20049;-78
2023/12/07 08:38:49;;;;;;;10.23;6.57;;;;;;;8.94;100.00;100533.59;5048081;28;20102;-77
2023/12/07 08:41:14;;;;;;;6.97;5.15;;;;;;;8.73;100.00;100503.91;5047729;28;20075;-77
2023/12/07 08:43:40;;;;;;;6.13;5.00;;;;;;;8.91;100.00;100521.28;5047842;28;20029;-80
2023/12/07 08:46:07;;;;;;;7.88;5.35;;;;;;;9.03;100.00;100530.22;5047679;28;20428;-78
2023/12/07 08:48:34;;;;;;;12.27;5.50;;;;;;;9.03;100.00;100540.94;5045199;28;20045;-78
2023/12/07 08:50:59;;;;;;;7.90;4.65;;;;;;;9.02;100.00;100533.91;5047729;28;20029;-76
2023/12/07 08:53:26;;;;;;;9.05;6.15;;;;;;;9.09;100.00;100535.13;5047641;28;20029;-78
2023/12/07 08:55:53;;;;;;;7.53;5.68;;;;;;;9.10;100.00;100532.31;5047880;28;20609;-78
2023/12/07 08:58:18;;;;;;;4.35;3.63;;;;;;;9.15;100.00;100545.38;5050779;28;20501;-78
2023/12/07 09:00:44;;;;;;;4.60;4.15;;;;;;;9.20;100.00;100543.22;5051984;28;20100;-78
2023/12/07 09:03:09;;;;;;;5.63;3.85;;;;;;;9.28;100.00;100538.09;5051911;28;20029;-79
2023/12/07 09:05:35;;;;;;;5.75;3.92;;;;;;;9.43;100.00;100550.31;5052246;28;20112;-77
2023/12/07 09:08:01;;;;;;;4.72;3.83;;;;;;;9.50;100.00;100539.97;5052907;28;20097;-78
2023/12/07 09:10:27;;;;;;;5.25;3.97;;;;;;;9.55;100.00;100546.69;5057177;28;20050;-78
2023/12/07 09:12:53;;;;;;;7.03;4.70;;;;;;;9.76;100.00;100544.13;5055492;28;20033;-78
2023/12/07 09:15:18;;;;;;;17.55;8.43;;;;;;;9.76;100.00;100547.66;5051541;28;20036;-77
2023/12/07 09:17:44;;;;;;;7.25;5.18;;;;;;;9.83;99.81;100548.03;5051654;28;20175;-77
2023/12/07 09:20:14;;;;;;;6.30;4.45;;;;;;;9.83;99.98;100519.34;5051672;28;20507;-79
2023/12/07 09:22:44;;;;;;;7.07;5.28;;;;;;;10.06;99.08;100557.78;5065941;28;20064;-77
2023/12/07 09:25:10;;;;;;;5.47;4.63;;;;;;;10.00;98.56;100522.53;5051369;28;20049;-77
2023/12/07 09:27:37;;;;;;;6.28;4.40;;;;;;;10.14;96.69;100557.22;5049021;28;20045;-78
2023/12/07 09:30:10;;;;;;;8.80;6.53;;;;;;;10.06;95.49;100547.03;5051431;28;20094;-77
2023/12/07 09:32:38;;;;;;;17.02;5.95;;;;;;;9.99;94.56;100543.16;5051444;28;20032;-78
2023/12/07 09:35:07;;;;;;;9.27;5.20;;;;;;;9.85;94.58;100517.41;5051118;28;20025;-78
2023/12/07 09:37:36;;;;;;;12.70;7.72;;;;;;;10.03;94.69;100541.91;5051173;28;20028;-78
2023/12/07 09:40:04;;;;;;;10.02;6.38;;;;;;;10.04;95.00;100542.78;5051064;28;20028;-77
2023/12/07 09:42:29;;;;;;;5.85;4.63;;;;;;;10.03;94.08;100544.59;5051318;28;20135;-79
2023/12/07 09:44:55;;;;;;;12.50;5.25;;;;;;;10.04;93.45;100540.09;5051249;28;20032;-77
2023/12/07 09:47:20;;;;;;;7.55;5.90;;;;;;;10.02;93.02;100536.69;5050753;28;20503;-77
2023/12/07 09:49:46;;;;;;;13.57;5.88;;;;;;;10.02;93.06;100542.06;5051324;28;20045;-78
2023/12/07 09:52:13;;;;;;;10.52;5.10;;;;;;;10.07;92.47;100538.03;5050944;28;20476;-78
2023/12/07 09:54:43;;;;;;;10.18;5.63;;;;;;;10.03;92.43;100533.03;5051321;28;20036;-77
2023/12/07 09:57:09;;;;;;;20.33;7.47;;;;;;;10.09;91.28;100541.44;5051167;28;20028;-76
2023/12/07 09:59:39;;;;;;;14.55;7.93;;;;;;;10.14;90.86;100551.84;5052256;28;20025;-77
2023/12/07 10:02:07;;;;;;;7.60;4.47;;;;;;;10.12;90.36;100526.91;5056402;28;20055;-78
2023/12/07 10:04:32;;;;;;;11.60;6.65;;;;;;;10.21;89.49;100550.38;5067862;28;20079;-76
2023/12/07 10:06:58;;;;;;;12.15;4.55;;;;;;;9.95;88.24;100524.72;5050674;28;20067;-77
2023/12/07 10:09:24;;;;;;;11.73;6.05;;;;;;;10.21;88.07;100536.94;5049495;28;20037;-77
2023/12/07 10:11:49;;;;;;;6.60;4.25;;;;;;;10.19;87.05;100533.50;5048109;28;20340;-77
2023/12/07 10:14:15;;;;;;;8.98;4.68;;;;;;;10.20;85.10;100527.16;5050301;28;20132;-77
2023/12/07 10:17:01;;;;;;;11.00;4.85;;;;;;;10.08;84.93;100536.19;5050544;28;20082;-77
2023/12/07 10:19:27;;;;;;;6.72;5.13;;;;;;;10.12;86.18;100535.81;5049774;28;20110;-76
2023/12/07 10:21:53;;;;;;;9.10;4.63;;;;;;;10.27;86.54;100536.44;5050285;28;20028;-78
2023/12/07 10:24:24;;;;;;;4.93;4.28;;;;;;;10.33;86.60;100534.13;5049931;28;20456;-77
2023/12/07 10:26:51;;;;;;;8.82;4.53;;;;;;;10.49;86.51;100541.75;5050562;28;20025;-78
2023/12/07 10:29:20;;;;;;;5.32;4.03;;;;;;;10.45;84.53;100537.63;5049991;28;20025;-77
2023/12/07 10:31:47;;;;;;;8.30;4.60;;;;;;;10.41;83.81;100544.22;5049980;28;20522;-79
2023/12/07 10:34:13;;;;;;;5.72;4.60;;;;;;;10.37;83.38;100538.25;5049876;28;20028;-79
2023/12/07 10:36:38;;;;;;;9.10;4.43;;;;;;;10.31;82.44;100535.19;5050138;28;20242;-78
2023/12/07 10:39:07;;;;;;;6.55;5.07;;;;;;;10.21;82.69;100539.63;5048640;28;20177;-76
2023/12/07 10:41:35;;;;;;;6.15;5.07;;;;;;;10.07;82.46;100539.84;5050288;28;20029;-78
2023/12/07 10:44:02;;;;;;;7.40;5.63;;;;;;;10.01;82.72;100532.28;5064015;28;20041;-78
2023/12/07 10:46:29;;;;;;;10.45;5.72;;;;;;;10.03;82.58;100543.78;5050692;28;20044;-78
2023/12/07 10:49:01;;;;;;;4.80;4.30;;;;;;;9.95;82.09;100546.22;5050045;28;20163;-77
2023/12/07 10:51:45;;;;;;;12.85;5.88;;;;;;;9.65;82.37;100539.63;5053539;28;20180;-78
2023/12/07 10:54:15;;;;;;;9.48;5.55;;;;;;;9.58;83.13;100530.31;5056518;28;20017;-79
2023/12/07 10:56:45;;;;;;;8.30;6.18;;;;;;;9.50;83.57;100532.78;5050890;28;20027;-78
2023/12/07 10:59:12;;;;;;;7.95;5.90;;;;;;;9.61;83.63;100546.19;5049697;28;20412;-77
2023/12/07 11:01:42;;;;;;;7.78;5.75;;;;;;;9.62;83.89;100558.66;5049786;28;20033;-77
2023/12/07 11:04:13;;;;;;;10.85;5.47;;;;;;;9.55;83.62;100544.00;5049389;28;20017;-78
2023/12/07 11:06:46;;;;;;;17.02;9.65;;;;;;;9.49;83.96;100555.22;5048454;28;20037;-77
2023/12/07 11:09:28;;;;;;;12.55;7.53;;;;;;;9.53;84.50;100563.88;5049515;28;20478;-79
2023/12/07 11:12:02;;;;;;;7.60;5.95;;;;;;;9.60;84.24;100568.66;5049349;28;20119;-78
2023/12/07 11:14:29;;;;;;;7.20;5.95;;;;;;;9.49;83.59;100565.97;5049412;28;20024;-77
2023/12/07 11:16:56;;;;;;;10.35;7.55;;;;;;;9.39;84.21;100548.00;5049062;28;20595;-78
2023/12/07 11:19:35;;;;;;;13.55;9.05;;;;;;;9.54;84.45;100579.88;5049136;28;20029;-77
2023/12/07 11:22:06;;;;;;;11.35;8.10;;;;;;;9.54;84.46;100577.19;5049332;28;20434;-78
2023/12/07 11:24:31;;;;;;;10.05;8.18;;;;;;;9.60;84.61;100563.28;5048890;28;20187;-78
2023/12/07 11:26:57;;;;;;;11.52;8.70;;;;;;;9.58;83.97;100575.97;5049347;28;20128;-78
2023/12/07 11:29:28;;;;;;;12.77;10.05;;;;;;;9.56;83.66;100588.69;5048916;28;20488;-78
2023/12/07 11:32:01;;;;;;;14.52;9.02;;;;;;;9.51;83.39;100564.00;5049087;28;20115;-78
2023/12/07 11:34:37;;;;;;;9.57;7.38;;;;;;;9.46;83.20;100584.97;5049294;28;20025;-78
2023/12/07 11:37:03;;;;;;;14.45;9.48;;;;;;;9.34;84.11;100596.66;5049524;28;20029;-78